createdAt,value
2019-06-07T00:00:48.995Z,97974.76
2019-06-07T00:03:55.402Z,97972.41
2019-06-07T00:07:01.289Z,97981.20
2019-06-07T00:10:07.108Z,97973.77
2019-06-07T00:13:17.078Z,97985.22
2019-06-07T00:16:23.239Z,97992.66
2019-06-07T00:19:28.243Z,97987.77
2019-06-07T00:22:35.032Z,97993.27
2019-06-07T00:25:41.030Z,97992.40
2019-06-07T00:28:46.991Z,97981.18
2019-06-07T00:31:53.305Z,97980.31
2019-06-07T00:34:59.475Z,97983.97
2019-06-07T00:38:05.651Z,97985.58
2019-06-07T00:41:12.521Z,97990.67
2019-06-07T00:44:22.661Z,97992.61
2019-06-07T00:47:26.483Z,97987.52
2019-06-07T00:50:32.646Z,97996.14
2019-06-07T00:53:38.607Z,97997.71
2019-06-07T00:56:44.886Z,97997.71
2019-06-07T00:59:50.722Z,97991.97
2019-06-07T01:02:56.749Z,97991.61
2019-06-07T01:06:03.606Z,97988.05
2019-06-07T01:09:09.560Z,97992.44
2019-06-07T01:12:19.052Z,97987.85
2019-06-07T01:15:28.825Z,97984.70
2019-06-07T01:18:39.094Z,97987.42
2019-06-07T01:21:38.601Z,97986.44
2019-06-07T01:24:45.063Z,97990.19
2019-06-07T01:27:51.474Z,97991.30
2019-06-07T01:30:57.631Z,97991.30
2019-06-07T01:34:03.756Z,97995.92
2019-06-07T01:37:10.107Z,98004.44
2019-06-07T01:40:17.157Z,97999.84
2019-06-07T01:43:28.183Z,98005.70
2019-06-07T01:46:31.582Z,98010.57
2019-06-07T01:49:37.509Z,98014.58
2019-06-07T01:52:44.617Z,98017.89
2019-06-07T01:55:50.752Z,98014.73
2019-06-07T01:58:57.111Z,98010.57
2019-06-07T02:02:03.619Z,98011.66
2019-06-07T02:05:09.636Z,98011.19
2019-06-07T02:08:15.743Z,98018.13
2019-06-07T02:11:22.446Z,98023.84
2019-06-07T02:14:32.963Z,98025.44
2019-06-07T02:17:37.829Z,98018.38
2019-06-07T02:20:44.125Z,98030.05
2019-06-07T02:23:50.175Z,98026.65
2019-06-07T02:26:56.469Z,98025.67
2019-06-07T02:30:35.079Z,98020.19
2019-06-07T02:33:10.614Z,98020.81
2019-06-07T02:36:16.715Z,98025.92
2019-06-07T02:39:25.481Z,98025.66
2019-06-07T02:42:39.010Z,98022.39
2019-06-07T02:45:43.532Z,98028.59
2019-06-07T02:48:46.610Z,98022.02
2019-06-07T02:51:52.560Z,98017.39
2019-06-07T02:54:58.381Z,98014.22
2019-06-07T02:58:04.579Z,98012.15
2019-06-07T03:01:10.560Z,98016.52
2019-06-07T03:04:17.194Z,98009.97
2019-06-07T03:07:23.508Z,98023.01
2019-06-07T03:10:31.405Z,98019.70
2019-06-07T03:13:37.753Z,98023.86
2019-06-07T03:16:51.090Z,98024.80
2019-06-07T03:19:58.428Z,98025.78
2019-06-07T03:22:29.295Z,98036.02
2019-06-07T03:25:01.435Z,98043.00
2019-06-07T03:27:40.617Z,98042.39
2019-06-07T03:30:35.341Z,98045.29
2019-06-07T03:32:45.720Z,98044.22
2019-06-07T03:35:08.389Z,98051.50
2019-06-07T03:37:42.614Z,98056.33
2019-06-07T03:40:11.227Z,98061.66
2019-06-07T03:42:41.612Z,98060.49
2019-06-07T03:45:12.052Z,98068.38
2019-06-07T03:47:43.285Z,98070.12
2019-06-07T03:50:13.726Z,98078.16
2019-06-07T03:52:44.061Z,98087.88
2019-06-07T03:55:14.455Z,98091.62
2019-06-07T03:58:30.202Z,98092.39
2019-06-07T04:00:17.846Z,98083.25
2019-06-07T04:02:48.215Z,98100.78
2019-06-07T04:05:18.528Z,98100.78
2019-06-07T04:07:48.900Z,98103.67
2019-06-07T04:10:19.272Z,98102.84
2019-06-07T04:12:49.624Z,98089.05
2019-06-07T04:15:19.998Z,98111.17
2019-06-07T04:18:01.720Z,98116.27
2019-06-07T04:20:22.558Z,98123.50
2019-06-07T04:22:52.912Z,98112.53
2019-06-07T04:25:23.395Z,98120.98
2019-06-07T04:27:53.707Z,98118.56
2019-06-07T04:30:41.826Z,98126.47
2019-06-07T04:33:13.680Z,98128.06
2019-06-07T04:35:45.325Z,98128.34
2019-06-07T04:38:16.581Z,98132.62
2019-06-07T04:40:47.199Z,98122.66
2019-06-07T04:43:17.641Z,98121.84
2019-06-07T04:45:51.550Z,98116.34
2019-06-07T04:48:22.567Z,98117.25
2019-06-07T04:50:54.389Z,98112.41
2019-06-07T04:53:24.755Z,98115.69
2019-06-07T04:55:55.226Z,98112.55
2019-06-07T04:58:25.608Z,98113.37
2019-06-07T05:01:02.611Z,98112.90
2019-06-07T05:03:30.557Z,98116.64
2019-06-07T05:06:00.079Z,98114.65
2019-06-07T05:08:33.204Z,98122.71
2019-06-07T05:11:02.487Z,98119.88
2019-06-07T05:13:37.765Z,98126.73
2019-06-07T05:16:04.921Z,98130.45
2019-06-07T05:18:36.333Z,98131.16
2019-06-07T05:21:07.457Z,98128.41
2019-06-07T05:26:09.966Z,98126.28
2019-06-07T05:28:42.821Z,98129.36
2019-06-07T05:31:12.849Z,98126.72
2019-06-07T05:33:43.612Z,98121.61
2019-06-07T05:36:14.152Z,98122.05
2019-06-07T05:38:45.167Z,98121.62
2019-06-07T05:41:15.705Z,98129.02
2019-06-07T05:44:00.222Z,98131.75
2019-06-07T05:46:18.156Z,98131.86
2019-06-07T05:48:48.928Z,98131.05
2019-06-07T05:51:19.655Z,98131.53
2019-06-07T05:53:50.145Z,98136.55
2019-06-07T05:56:20.578Z,98132.92
2019-06-07T05:58:50.952Z,98143.02
2019-06-07T06:03:53.467Z,98145.48
2019-06-07T06:06:23.829Z,98147.70
2019-06-07T06:09:12.801Z,98144.33
2019-06-07T06:11:43.147Z,98144.69
2019-06-07T06:14:07.415Z,98142.88
2019-06-07T06:16:31.721Z,98142.92
2019-06-07T06:19:02.174Z,98140.71
2019-06-07T06:21:32.608Z,98139.74
2019-06-07T06:24:02.986Z,98134.45
2019-06-07T06:26:33.456Z,98132.83
2019-06-07T06:29:03.852Z,98139.76
2019-06-07T06:31:34.197Z,98128.66
2019-06-07T06:34:04.583Z,98129.16
2019-06-07T06:36:35.263Z,98125.77
2019-06-07T06:39:06.922Z,98132.14
2019-06-07T06:41:50.755Z,98137.29
2019-06-07T06:44:09.480Z,98151.95
2019-06-07T06:46:46.165Z,98146.23
2019-06-07T06:49:12.049Z,98152.21
2019-06-07T06:51:46.990Z,98159.30
2019-06-07T06:54:14.451Z,98165.33
2019-06-07T06:56:45.653Z,98160.50
2019-06-07T07:01:50.964Z,98175.18
2019-06-07T07:04:21.208Z,98176.44
2019-06-07T07:06:53.711Z,98181.50
2019-06-07T07:09:24.076Z,98174.23
2019-06-07T07:12:10.214Z,98174.23
2019-06-07T07:14:26.709Z,98174.72
2019-06-07T07:16:57.749Z,98178.21
2019-06-07T07:19:30.282Z,98177.18
2019-06-07T07:22:01.051Z,98169.65
2019-06-07T07:24:31.558Z,98162.53
2019-06-07T07:27:01.939Z,98166.72
2019-06-07T07:29:32.477Z,98167.38
2019-06-07T07:32:02.829Z,98159.71
2019-06-07T07:34:36.921Z,98162.27
2019-06-07T07:37:05.553Z,98165.63
2019-06-07T07:39:35.985Z,98165.86
2019-06-07T07:42:20.127Z,98152.64
2019-06-07T07:44:39.107Z,98155.30
2019-06-07T07:47:09.795Z,98148.68
2019-06-07T07:49:40.265Z,98148.44
2019-06-07T07:52:10.699Z,98144.27
2019-06-07T07:54:41.135Z,98148.41
2019-06-07T07:57:11.496Z,98136.55
2019-06-07T07:59:57.242Z,98140.45
2019-06-07T08:02:14.028Z,98146.03
2019-06-07T08:07:16.539Z,98152.28
2019-06-07T08:09:48.077Z,98152.42
2019-06-07T08:12:19.327Z,98157.19
2019-06-07T08:14:51.134Z,98156.41
2019-06-07T08:17:21.869Z,98148.27
2019-06-07T08:19:54.314Z,98147.17
2019-06-07T08:22:24.386Z,98150.83
2019-06-07T08:24:55.964Z,98161.09
2019-06-07T08:27:27.174Z,98167.66
2019-06-07T08:30:16.074Z,98171.32
2019-06-07T08:32:29.653Z,98178.45
2019-06-07T08:35:05.941Z,98175.71
2019-06-07T08:38:14.103Z,98183.47
2019-06-07T08:40:04.621Z,98180.16
2019-06-07T08:42:37.256Z,98177.20
2019-06-07T08:45:07.306Z,98180.11
2019-06-07T08:47:37.754Z,98179.45
2019-06-07T08:50:08.566Z,98178.45
2019-06-07T08:52:39.208Z,98175.45
2019-06-07T08:55:09.947Z,98177.22
2019-06-07T08:57:40.391Z,98176.83
2019-06-07T09:00:42.343Z,98180.94
2019-06-07T09:02:43.434Z,98186.16
2019-06-07T09:05:14.707Z,98195.45
2019-06-07T09:07:45.069Z,98194.23
2019-06-07T09:10:15.871Z,98201.87
2019-06-07T09:12:46.400Z,98192.45
2019-06-07T09:15:23.515Z,98194.08
2019-06-07T09:18:34.898Z,98199.88
2019-06-07T09:20:36.378Z,98204.34
2019-06-07T09:22:59.094Z,98208.38
2019-06-07T09:25:26.210Z,98204.95
2019-06-07T09:28:00.668Z,98203.84
2019-06-07T09:30:47.205Z,98212.29
2019-06-07T09:33:17.581Z,98209.21
2019-06-07T09:35:49.220Z,98210.39
2019-06-07T09:38:25.685Z,98207.94
2019-06-07T09:40:51.758Z,98212.45
2019-06-07T09:45:54.275Z,98202.72
2019-06-07T09:49:09.123Z,98199.61
2019-06-07T09:51:02.149Z,98203.02
2019-06-07T09:53:29.237Z,98203.17
2019-06-07T09:56:03.529Z,98198.03
2019-06-07T09:58:51.026Z,98201.30
2019-06-07T10:01:09.912Z,98206.07
2019-06-07T10:03:35.974Z,98201.39
2019-06-07T10:06:12.383Z,98190.14
2019-06-07T10:09:57.022Z,98195.56
2019-06-07T10:11:12.537Z,98195.52
2019-06-07T10:13:42.918Z,98209.31
2019-06-07T10:16:13.321Z,98197.50
2019-06-07T10:18:43.705Z,98199.53
2019-06-07T10:21:14.997Z,98200.66
2019-06-07T10:23:45.784Z,98185.05
2019-06-07T10:26:16.148Z,98187.76
2019-06-07T10:28:46.680Z,98186.13
2019-06-07T10:31:17.038Z,98191.71
2019-06-07T10:33:47.385Z,98192.98
2019-06-07T10:36:17.775Z,98187.41
2019-06-07T10:38:48.814Z,98188.09
2019-06-07T10:41:19.595Z,98183.02
2019-06-07T10:43:49.989Z,98187.76
2019-06-07T10:46:20.420Z,98183.59
2019-06-07T10:48:50.854Z,98186.45
2019-06-07T10:51:21.231Z,98178.68
2019-06-07T10:53:51.587Z,98177.59
2019-06-07T10:56:21.974Z,98180.45
2019-06-07T10:58:52.336Z,98182.06
2019-06-07T11:01:22.673Z,98182.97
2019-06-07T11:03:53.282Z,98176.55
2019-06-07T11:06:23.622Z,98181.05
2019-06-07T11:08:53.969Z,98171.23
2019-06-07T11:11:24.394Z,98176.58
2019-06-07T11:13:54.746Z,98176.12
2019-06-07T11:16:25.158Z,98175.70
2019-06-07T11:18:55.546Z,98172.64
2019-06-07T11:21:25.891Z,98170.23
2019-06-07T11:23:56.270Z,98166.78
2019-06-07T11:26:26.773Z,98165.81
2019-06-07T11:28:57.209Z,98164.26
2019-06-07T11:31:27.685Z,98168.55
2019-06-07T11:33:58.028Z,98166.51
2019-06-07T11:36:28.704Z,98165.23
2019-06-07T11:38:59.478Z,98161.05
2019-06-07T11:41:29.941Z,98169.81
2019-06-07T11:44:00.302Z,98171.13
2019-06-07T11:46:30.772Z,98172.36
2019-06-07T11:49:01.271Z,98164.26
2019-06-07T11:51:31.589Z,98156.54
2019-06-07T11:54:02.118Z,98155.48
2019-06-07T11:56:32.517Z,98157.74
2019-06-07T11:59:02.933Z,98164.28
2019-06-07T12:01:33.327Z,98161.21
2019-06-07T12:04:03.735Z,98161.21
2019-06-07T12:06:34.096Z,98170.75
2019-06-07T12:09:05.899Z,98164.48
2019-06-07T12:11:36.378Z,98170.17
2019-06-07T12:14:06.971Z,98163.38
2019-06-07T12:16:37.484Z,98162.75
2019-06-07T12:19:09.542Z,98155.46
2019-06-07T12:21:40.501Z,98158.94
2019-06-07T12:24:12.152Z,98157.11
2019-06-07T12:26:42.580Z,98150.45
2019-06-07T12:29:13.176Z,98152.83
2019-06-07T12:31:43.607Z,98150.38
2019-06-07T12:34:15.446Z,98150.16
2019-06-07T12:36:46.078Z,98153.62
2019-06-07T12:39:16.463Z,98145.73
2019-06-07T12:41:46.832Z,98148.32
2019-06-07T12:44:18.522Z,98144.29
2019-06-07T12:46:49.445Z,98143.78
2019-06-07T12:49:21.099Z,98144.13
2019-06-07T12:51:51.639Z,98145.19
2019-06-07T12:54:22.016Z,98155.22
2019-06-07T12:56:52.578Z,98139.61
2019-06-07T12:59:24.198Z,98143.70
2019-06-07T13:01:54.783Z,98146.73
2019-06-07T13:04:25.260Z,98143.94
2019-06-07T13:06:55.628Z,98144.15
2019-06-07T13:09:26.073Z,98146.25
2019-06-07T13:11:56.504Z,98142.14
2019-06-07T13:14:28.447Z,98146.38
2019-06-07T13:16:59.304Z,98143.05
2019-06-07T13:19:29.798Z,98150.90
2019-06-07T13:22:00.189Z,98138.48
2019-06-07T13:24:30.660Z,98145.53
2019-06-07T13:27:01.052Z,98140.89
2019-06-07T13:29:32.263Z,98139.94
2019-06-07T13:32:02.974Z,98141.01
2019-06-07T13:34:33.331Z,98137.83
2019-06-07T13:37:03.754Z,98139.31
2019-06-07T13:39:34.156Z,98136.43
2019-06-07T13:42:04.543Z,98139.15
2019-06-07T13:44:34.970Z,98130.65
2019-06-07T13:47:05.429Z,98131.28
2019-06-07T13:49:35.784Z,98137.15
2019-06-07T13:52:06.174Z,98130.64
2019-06-07T13:54:36.604Z,98128.95
2019-06-07T13:57:06.928Z,98126.09
2019-06-07T13:59:37.289Z,98130.59
2019-06-07T14:02:07.645Z,98124.47
2019-06-07T14:04:38.491Z,98119.66
2019-06-07T14:07:09.274Z,98116.62
2019-06-07T14:09:39.732Z,98120.11
2019-06-07T14:12:10.181Z,98122.18
2019-06-07T14:14:40.594Z,98115.66
2019-06-07T14:17:10.920Z,98109.71
2019-06-07T14:19:43.584Z,98111.77
2019-06-07T14:22:13.958Z,98115.19
2019-06-07T14:24:44.323Z,98113.91
2019-06-07T14:27:14.737Z,98112.08
2019-06-07T14:29:45.055Z,98114.36
2019-06-07T14:32:15.431Z,98115.92
2019-06-07T14:34:45.815Z,98118.78
2019-06-07T14:37:16.166Z,98118.51
2019-06-07T14:39:46.557Z,98121.92
2019-06-07T14:42:16.960Z,98120.54
2019-06-07T14:44:47.426Z,98126.95
2019-06-07T14:47:17.790Z,98128.98
2019-06-07T14:49:48.919Z,98134.43
2019-06-07T14:52:19.651Z,98130.10
2019-06-07T14:54:50.058Z,98129.34
2019-06-07T14:57:21.286Z,98131.70
2019-06-07T14:59:51.737Z,98125.32
2019-06-07T15:02:22.128Z,98126.61
2019-06-07T15:04:52.480Z,98132.31
2019-06-07T15:07:22.889Z,98134.72
2019-06-07T15:09:53.242Z,98134.22
2019-06-07T15:12:25.331Z,98131.69
2019-06-07T15:14:55.673Z,98132.88
2019-06-07T15:17:26.490Z,98125.91
2019-06-07T15:19:57.529Z,98120.17
2019-06-07T15:22:28.044Z,98127.38
2019-06-07T15:24:58.384Z,98133.02
2019-06-07T15:27:29.148Z,98137.14
2019-06-07T15:29:59.627Z,98129.13
2019-06-07T15:32:30.612Z,98128.30
2019-06-07T15:35:01.512Z,98123.39
2019-06-07T15:37:32.563Z,98130.05
2019-06-07T15:40:03.105Z,98128.20
2019-06-07T15:42:47.668Z,98131.98
2019-06-07T15:45:05.882Z,98127.13
2019-06-07T15:47:36.250Z,98127.13
2019-06-07T15:50:07.265Z,98127.77
2019-06-07T15:52:38.280Z,98129.47
2019-06-07T15:55:10.248Z,98129.88
2019-06-07T15:57:42.254Z,98123.28
2019-06-07T16:00:14.852Z,98127.42
2019-06-07T16:02:45.241Z,98121.84
2019-06-07T16:05:16.236Z,98127.34
2019-06-07T16:07:46.684Z,98125.45
2019-06-07T16:10:17.228Z,98120.55
2019-06-07T16:12:59.684Z,98124.62
2019-06-07T16:15:19.916Z,98123.41
2019-06-07T16:17:50.311Z,98124.77
2019-06-07T16:20:20.781Z,98129.25
2019-06-07T16:22:51.141Z,98128.23
2019-06-07T16:25:21.520Z,98136.20
2019-06-07T16:27:51.891Z,98135.52
2019-06-07T16:30:22.354Z,98136.75
2019-06-07T16:32:53.486Z,98139.61
2019-06-07T16:35:23.976Z,98136.24
2019-06-07T16:37:54.324Z,98139.82
2019-06-07T16:40:24.658Z,98134.74
2019-06-07T16:42:55.031Z,98137.65
2019-06-07T16:45:25.460Z,98142.03
2019-06-07T16:47:55.806Z,98138.45
2019-06-07T16:50:26.231Z,98147.48
2019-06-07T16:52:56.653Z,98147.33
2019-06-07T16:55:27.017Z,98145.62
2019-06-07T16:57:57.414Z,98147.14
2019-06-07T17:00:27.984Z,98141.37
2019-06-07T17:02:58.436Z,98142.23
2019-06-07T17:05:28.828Z,98149.02
2019-06-07T17:07:59.243Z,98148.37
2019-06-07T17:10:29.609Z,98151.59
2019-06-07T17:12:59.960Z,98147.55
2019-06-07T17:15:30.366Z,98142.97
2019-06-07T17:18:00.710Z,98147.72
2019-06-07T17:20:31.168Z,98146.35
2019-06-07T17:23:01.544Z,98156.69
2019-06-07T17:25:31.895Z,98149.41
2019-06-07T17:28:02.250Z,98154.14
2019-06-07T17:30:32.578Z,98152.64
2019-06-07T17:33:02.954Z,98149.07
2019-06-07T17:35:33.296Z,98153.64
2019-06-07T17:38:03.789Z,98154.67
2019-06-07T17:40:34.145Z,98151.63
2019-06-07T17:43:04.508Z,98153.84
2019-06-07T17:45:34.911Z,98151.27
2019-06-07T17:48:05.370Z,98153.48
2019-06-07T17:50:35.787Z,98151.44
2019-06-07T17:53:06.158Z,98158.55
2019-06-07T17:55:36.598Z,98160.08
2019-06-07T17:58:06.989Z,98164.27
2019-06-07T18:00:51.227Z,98154.08
2019-06-07T18:03:21.791Z,98151.02
2019-06-07T18:05:53.784Z,98153.02
2019-06-07T18:08:25.436Z,98152.66
2019-06-07T18:10:55.838Z,98160.45
2019-06-07T18:13:26.290Z,98156.52
2019-06-07T18:15:59.441Z,98157.66
2019-06-07T18:18:29.182Z,98159.66
2019-06-07T18:20:59.753Z,98157.64
2019-06-07T18:23:30.133Z,98158.74
2019-06-07T18:26:00.500Z,98159.56
2019-06-07T18:28:30.835Z,98160.03
2019-06-07T18:31:01.177Z,98164.08
2019-06-07T18:33:31.653Z,98159.50
2019-06-07T18:36:02.137Z,98158.27
2019-06-07T18:38:32.690Z,98155.20
2019-06-07T18:41:03.084Z,98158.91
2019-06-07T18:43:34.450Z,98167.49
2019-06-07T18:46:04.849Z,98174.59
2019-06-07T18:48:35.231Z,98169.12
2019-06-07T18:51:05.833Z,98175.00
2019-06-07T18:53:36.318Z,98181.69
2019-06-07T18:56:06.701Z,98183.44
2019-06-07T18:58:37.042Z,98182.70
2019-06-07T19:01:07.443Z,98181.98
2019-06-07T19:03:37.867Z,98191.97
2019-06-07T19:06:08.857Z,98194.75
2019-06-07T19:08:39.614Z,98194.07
2019-06-07T19:11:10.008Z,98202.80
2019-06-07T19:13:40.372Z,98209.63
2019-06-07T19:16:10.762Z,98208.70
2019-06-07T19:18:41.199Z,98203.07
2019-06-07T19:21:11.597Z,98203.52
2019-06-07T19:23:42.039Z,98206.19
2019-06-07T19:26:12.582Z,98205.25
2019-06-07T19:28:43.033Z,98207.60
2019-06-07T19:31:13.389Z,98204.31
2019-06-07T19:33:48.981Z,98207.85
2019-06-07T19:36:16.021Z,98201.47
2019-06-07T19:38:46.424Z,98208.91
2019-06-07T19:41:19.598Z,98204.81
2019-06-07T19:43:48.879Z,98203.66
2019-06-07T19:46:19.319Z,98205.66
2019-06-07T19:48:49.752Z,98210.34
2019-06-07T19:51:20.501Z,98202.23
2019-06-07T19:53:50.986Z,98204.30
2019-06-07T19:56:21.329Z,98205.97
2019-06-07T19:58:51.773Z,98206.60
2019-06-07T20:01:22.160Z,98209.59
2019-06-07T20:03:53.735Z,98205.66
2019-06-07T20:06:24.148Z,98206.64
2019-06-07T20:08:54.518Z,98200.69
2019-06-07T20:11:24.884Z,98200.28
2019-06-07T20:13:56.260Z,98204.41
2019-06-07T20:16:26.809Z,98206.12
2019-06-07T20:18:58.134Z,98210.45
2019-06-07T20:21:28.677Z,98213.66
2019-06-07T20:24:01.650Z,98218.04
2019-06-07T20:26:31.319Z,98215.30
2019-06-07T20:29:01.950Z,98221.90
2019-06-07T20:31:32.330Z,98219.47
2019-06-07T20:34:05.778Z,98222.62
2019-06-07T20:36:37.571Z,98219.47
2019-06-07T20:39:08.499Z,98213.47
2019-06-07T20:41:39.371Z,98219.12
2019-06-07T20:44:10.814Z,98215.77
2019-06-07T20:46:41.315Z,98211.37
2019-06-07T20:49:47.877Z,98212.16
2019-06-07T20:52:54.316Z,98216.02
2019-06-07T20:56:00.566Z,98218.23
2019-06-07T20:59:07.017Z,98217.08
2019-06-07T21:02:13.638Z,98212.97
2019-06-07T21:05:20.222Z,98219.41
2019-06-07T21:07:50.837Z,98213.72
2019-06-07T21:10:21.276Z,98210.61
2019-06-07T21:12:51.807Z,98206.35
2019-06-07T21:15:22.327Z,98203.72
2019-06-07T21:17:52.857Z,98205.22
2019-06-07T21:20:23.364Z,98204.38
2019-06-07T21:22:53.732Z,98207.08
2019-06-07T21:25:24.222Z,98203.52
2019-06-07T21:27:54.695Z,98201.59
2019-06-07T21:30:25.034Z,98199.47
2019-06-07T21:32:55.498Z,98200.55
2019-06-07T21:35:25.884Z,98198.64
2019-06-07T21:37:56.313Z,98201.33
2019-06-07T21:40:26.966Z,98199.92
2019-06-07T21:42:57.352Z,98200.20
2019-06-07T21:45:27.792Z,98204.59
2019-06-07T21:47:58.780Z,98206.19
2019-06-07T21:50:29.601Z,98205.70
2019-06-07T21:52:59.958Z,98212.08
2019-06-07T21:55:30.501Z,98210.31
2019-06-07T21:58:00.944Z,98213.00
2019-06-07T22:01:17.366Z,98206.89
2019-06-07T22:03:48.253Z,98205.28
2019-06-07T22:06:18.941Z,98199.53
2019-06-07T22:08:49.742Z,98201.50
2019-06-07T22:11:20.088Z,98200.09
2019-06-07T22:13:50.512Z,98198.31
2019-06-07T22:16:28.464Z,98199.99
2019-06-07T22:18:52.969Z,98209.36
2019-06-07T22:21:23.328Z,98203.03
2019-06-07T22:23:53.752Z,98205.16
2019-06-07T22:26:24.124Z,98208.30
2019-06-07T22:28:54.512Z,98216.38
2019-06-07T22:31:24.939Z,98208.62
2019-06-07T22:33:55.358Z,98206.62
2019-06-07T22:36:25.735Z,98203.20
2019-06-07T22:38:56.213Z,98206.62
2019-06-07T22:41:26.746Z,98209.42
2019-06-07T22:43:57.130Z,98211.61
2019-06-07T22:46:36.969Z,98207.02
2019-06-07T22:48:59.756Z,98211.20
2019-06-07T22:51:30.118Z,98202.78
2019-06-07T22:54:00.519Z,98199.87
2019-06-07T22:56:45.009Z,98196.09
2019-06-07T22:59:18.724Z,98194.03
2019-06-07T23:01:47.438Z,98196.17
2019-06-07T23:04:19.325Z,98206.94
2019-06-07T23:06:49.784Z,98191.88
2019-06-07T23:09:20.135Z,98193.23
2019-06-07T23:11:50.572Z,98194.64
2019-06-07T23:14:20.942Z,98191.84
2019-06-07T23:16:55.486Z,98171.46
2019-06-07T23:19:23.420Z,98178.59
2019-06-07T23:21:53.802Z,98182.98
2019-06-07T23:24:24.288Z,98182.98
2019-06-07T23:26:54.698Z,98193.67
2019-06-07T23:29:25.539Z,98177.28
2019-06-07T23:31:55.932Z,98177.28
2019-06-07T23:34:26.345Z,98170.81
2019-06-07T23:36:56.746Z,98172.05
2019-06-07T23:39:27.167Z,98173.13
2019-06-07T23:41:57.564Z,98178.43
2019-06-07T23:44:27.980Z,98164.98
2019-06-07T23:47:10.680Z,98178.03
2019-06-07T23:49:30.476Z,98164.68
2019-06-07T23:52:01.240Z,98164.68
2019-06-07T23:54:31.655Z,98178.21
2019-06-07T23:57:02.054Z,98176.78
2019-06-07T23:59:32.518Z,98176.78
